sensor_id;sensor_type;location;lat;lon;timestamp;temperature;humidity
21522;DHT22;10922;45.572;10.002;2023-02-28T00:00:46;7.20;99.90
21522;DHT22;10922;45.572;10.002;2023-02-28T00:03:12;7.30;99.90
21522;DHT22;10922;45.572;10.002;2023-02-28T00:05:38;7.00;99.90
21522;DHT22;10922;45.572;10.002;2023-02-28T00:08:04;6.80;99.90
21522;DHT22;10922;45.572;10.002;2023-02-28T00:10:30;6.90;99.90
21522;DHT22;10922;45.572;10.002;2023-02-28T00:13:04;6.60;99.90
21522;DHT22;10922;45.572;10.002;2023-02-28T00:15:30;7.00;99.90
21522;DHT22;10922;45.572;10.002;2023-02-28T00:17:56;6.60;99.90
21522;DHT22;10922;45.572;10.002;2023-02-28T00:20:23;6.70;99.90
21522;DHT22;10922;45.572;10.002;2023-02-28T00:22:50;6.90;99.90
21522;DHT22;10922;45.572;10.002;2023-02-28T00:25:22;6.60;99.90
21522;DHT22;10922;45.572;10.002;2023-02-28T00:27:49;6.40;99.90
21522;DHT22;10922;45.572;10.002;2023-02-28T00:30:17;6.50;99.90
21522;DHT22;10922;45.572;10.002;2023-02-28T00:32:43;6.40;99.90
21522;DHT22;10922;45.572;10.002;2023-02-28T00:35:10;6.50;99.90
21522;DHT22;10922;45.572;10.002;2023-02-28T00:37:36;6.50;99.90
21522;DHT22;10922;45.572;10.002;2023-02-28T00:40:03;6.60;99.90
21522;DHT22;10922;45.572;10.002;2023-02-28T00:42:33;6.60;99.90
21522;DHT22;10922;45.572;10.002;2023-02-28T00:44:58;6.90;99.90
21522;DHT22;10922;45.572;10.002;2023-02-28T00:47:24;6.90;99.90
21522;DHT22;10922;45.572;10.002;2023-02-28T00:49:50;7.10;99.90
21522;DHT22;10922;45.572;10.002;2023-02-28T00:52:15;7.40;99.90
21522;DHT22;10922;45.572;10.002;2023-02-28T00:54:41;7.10;99.90
21522;DHT22;10922;45.572;10.002;2023-02-28T00:57:07;7.30;99.90
21522;DHT22;10922;45.572;10.002;2023-02-28T00:59:32;7.50;99.90
21522;DHT22;10922;45.572;10.002;2023-02-28T01:01:58;7.60;99.90
21522;DHT22;10922;45.572;10.002;2023-02-28T01:04:24;7.30;99.90
21522;DHT22;10922;45.572;10.002;2023-02-28T01:06:49;7.20;99.90
21522;DHT22;10922;45.572;10.002;2023-02-28T01:09:15;7.10;99.90
21522;DHT22;10922;45.572;10.002;2023-02-28T01:11:41;7.10;99.90
21522;DHT22;10922;45.572;10.002;2023-02-28T01:14:12;7.10;99.90
21522;DHT22;10922;45.572;10.002;2023-02-28T01:16:38;7.20;99.90
21522;DHT22;10922;45.572;10.002;2023-02-28T01:19:04;7.00;99.90
21522;DHT22;10922;45.572;10.002;2023-02-28T01:21:29;7.20;99.90
21522;DHT22;10922;45.572;10.002;2023-02-28T01:23:56;7.60;99.90
21522;DHT22;10922;45.572;10.002;2023-02-28T01:26:23;7.40;99.90
21522;DHT22;10922;45.572;10.002;2023-02-28T01:28:50;7.50;99.90
21522;DHT22;10922;45.572;10.002;2023-02-28T01:31:17;7.40;99.90
21522;DHT22;10922;45.572;10.002;2023-02-28T01:33:43;7.30;99.90
21522;DHT22;10922;45.572;10.002;2023-02-28T01:36:15;7.50;99.90
21522;DHT22;10922;45.572;10.002;2023-02-28T01:38:42;7.50;99.90
21522;DHT22;10922;45.572;10.002;2023-02-28T01:41:08;7.30;99.90
21522;DHT22;10922;45.572;10.002;2023-02-28T01:46:09;7.30;99.90
21522;DHT22;10922;45.572;10.002;2023-02-28T01:48:39;7.40;99.90
21522;DHT22;10922;45.572;10.002;2023-02-28T01:51:14;7.30;99.90
21522;DHT22;10922;45.572;10.002;2023-02-28T01:53:51;7.50;99.90
21522;DHT22;10922;45.572;10.002;2023-02-28T01:56:22;7.30;99.90
21522;DHT22;10922;45.572;10.002;2023-02-28T01:58:51;7.20;99.90
21522;DHT22;10922;45.572;10.002;2023-02-28T02:01:17;7.20;99.90
21522;DHT22;10922;45.572;10.002;2023-02-28T02:03:52;7.20;99.90
21522;DHT22;10922;45.572;10.002;2023-02-28T02:06:28;7.20;99.90
21522;DHT22;10922;45.572;10.002;2023-02-28T02:08:54;7.20;99.90
21522;DHT22;10922;45.572;10.002;2023-02-28T02:11:22;7.40;1.00
21522;DHT22;10922;45.572;10.002;2023-02-28T02:14:31;7.50;99.90
21522;DHT22;10922;45.572;10.002;2023-02-28T02:17:25;7.60;99.90
21522;DHT22;10922;45.572;10.002;2023-02-28T02:26:03;7.50;99.90
21522;DHT22;10922;45.572;10.002;2023-02-28T02:40:22;7.20;99.90
21522;DHT22;10922;45.572;10.002;2023-02-28T02:45:51;7.00;99.90
21522;DHT22;10922;45.572;10.002;2023-02-28T02:48:20;6.70;1.00
21522;DHT22;10922;45.572;10.002;2023-02-28T02:50:54;6.70;99.90
21522;DHT22;10922;45.572;10.002;2023-02-28T02:53:30;6.60;99.90
21522;DHT22;10922;45.572;10.002;2023-02-28T02:55:59;6.40;99.90
21522;DHT22;10922;45.572;10.002;2023-02-28T02:58:30;6.40;99.90
21522;DHT22;10922;45.572;10.002;2023-02-28T03:00:59;6.20;99.90
21522;DHT22;10922;45.572;10.002;2023-02-28T03:03:27;6.30;99.90
21522;DHT22;10922;45.572;10.002;2023-02-28T03:06:00;6.20;99.90
21522;DHT22;10922;45.572;10.002;2023-02-28T03:08:28;6.30;99.90
21522;DHT22;10922;45.572;10.002;2023-02-28T03:11:01;6.30;99.90
21522;DHT22;10922;45.572;10.002;2023-02-28T03:18:54;6.00;99.90
21522;DHT22;10922;45.572;10.002;2023-02-28T03:21:34;6.00;99.90
21522;DHT22;10922;45.572;10.002;2023-02-28T03:24:09;6.00;99.90
21522;DHT22;10922;45.572;10.002;2023-02-28T03:26:39;6.00;99.90
21522;DHT22;10922;45.572;10.002;2023-02-28T03:29:19;5.80;99.90
21522;DHT22;10922;45.572;10.002;2023-02-28T03:31:52;5.80;99.90
21522;DHT22;10922;45.572;10.002;2023-02-28T03:34:26;5.80;99.90
21522;DHT22;10922;45.572;10.002;2023-02-28T03:36:59;5.80;99.90
21522;DHT22;10922;45.572;10.002;2023-02-28T03:39:36;5.50;99.90
21522;DHT22;10922;45.572;10.002;2023-02-28T03:42:16;5.40;99.90
21522;DHT22;10922;45.572;10.002;2023-02-28T03:44:51;5.60;99.90
21522;DHT22;10922;45.572;10.002;2023-02-28T03:47:41;5.50;99.90
21522;DHT22;10922;45.572;10.002;2023-02-28T03:50:51;5.60;99.90
21522;DHT22;10922;45.572;10.002;2023-02-28T03:53:32;5.70;99.90
21522;DHT22;10922;45.572;10.002;2023-02-28T03:58:49;5.50;99.90
21522;DHT22;10922;45.572;10.002;2023-02-28T04:01:26;5.50;99.90
21522;DHT22;10922;45.572;10.002;2023-02-28T04:03:53;5.60;99.90
21522;DHT22;10922;45.572;10.002;2023-02-28T04:06:20;5.70;99.90
21522;DHT22;10922;45.572;10.002;2023-02-28T04:08:48;5.70;1.00
21522;DHT22;10922;45.572;10.002;2023-02-28T04:13:44;5.80;99.90
21522;DHT22;10922;45.572;10.002;2023-02-28T04:16:10;5.60;99.90
21522;DHT22;10922;45.572;10.002;2023-02-28T04:18:40;5.80;99.90
21522;DHT22;10922;45.572;10.002;2023-02-28T04:21:06;5.90;99.90
21522;DHT22;10922;45.572;10.002;2023-02-28T04:23:32;5.70;99.90
21522;DHT22;10922;45.572;10.002;2023-02-28T04:25:58;5.80;99.90
21522;DHT22;10922;45.572;10.002;2023-02-28T04:28:24;5.70;99.90
21522;DHT22;10922;45.572;10.002;2023-02-28T04:31:05;5.70;99.90
21522;DHT22;10922;45.572;10.002;2023-02-28T04:33:32;5.60;99.90
21522;DHT22;10922;45.572;10.002;2023-02-28T04:36:03;5.40;99.90
21522;DHT22;10922;45.572;10.002;2023-02-28T04:38:32;5.50;99.90
21522;DHT22;10922;45.572;10.002;2023-02-28T04:40:59;5.60;99.90
21522;DHT22;10922;45.572;10.002;2023-02-28T04:43:28;5.10;99.90
21522;DHT22;10922;45.572;10.002;2023-02-28T04:45:55;5.20;99.90
21522;DHT22;10922;45.572;10.002;2023-02-28T04:48:23;5.30;99.90
21522;DHT22;10922;45.572;10.002;2023-02-28T04:50:49;5.30;99.90
21522;DHT22;10922;45.572;10.002;2023-02-28T04:53:14;5.30;99.90
21522;DHT22;10922;45.572;10.002;2023-02-28T04:55:40;5.10;99.90
21522;DHT22;10922;45.572;10.002;2023-02-28T04:58:06;5.30;1.00
21522;DHT22;10922;45.572;10.002;2023-02-28T05:00:31;5.20;1.00
21522;DHT22;10922;45.572;10.002;2023-02-28T05:02:57;5.30;1.00
21522;DHT22;10922;45.572;10.002;2023-02-28T05:05:23;5.40;1.00
21522;DHT22;10922;45.572;10.002;2023-02-28T05:07:48;5.30;1.00
21522;DHT22;10922;45.572;10.002;2023-02-28T05:10:14;5.20;1.00
21522;DHT22;10922;45.572;10.002;2023-02-28T05:12:40;5.20;99.90
21522;DHT22;10922;45.572;10.002;2023-02-28T05:15:06;5.20;1.00
21522;DHT22;10922;45.572;10.002;2023-02-28T05:17:32;5.40;1.00
21522;DHT22;10922;45.572;10.002;2023-02-28T05:19:57;5.20;99.90
21522;DHT22;10922;45.572;10.002;2023-02-28T05:22:23;5.10;1.00
21522;DHT22;10922;45.572;10.002;2023-02-28T05:24:48;5.10;1.00
21522;DHT22;10922;45.572;10.002;2023-02-28T05:27:14;5.30;1.00
21522;DHT22;10922;45.572;10.002;2023-02-28T05:29:40;5.30;1.00
21522;DHT22;10922;45.572;10.002;2023-02-28T05:32:11;5.30;1.00
21522;DHT22;10922;45.572;10.002;2023-02-28T05:34:40;5.50;1.00
21522;DHT22;10922;45.572;10.002;2023-02-28T05:37:11;5.20;1.00
21522;DHT22;10922;45.572;10.002;2023-02-28T05:39:37;5.40;1.00
21522;DHT22;10922;45.572;10.002;2023-02-28T05:42:04;5.70;1.00
21522;DHT22;10922;45.572;10.002;2023-02-28T05:44:29;5.30;1.00
21522;DHT22;10922;45.572;10.002;2023-02-28T05:46:55;5.30;1.00
21522;DHT22;10922;45.572;10.002;2023-02-28T05:49:21;5.10;1.00
21522;DHT22;10922;45.572;10.002;2023-02-28T05:51:47;5.00;1.00
21522;DHT22;10922;45.572;10.002;2023-02-28T05:54:13;5.20;1.00
21522;DHT22;10922;45.572;10.002;2023-02-28T05:56:39;5.20;1.00
21522;DHT22;10922;45.572;10.002;2023-02-28T05:59:06;5.20;1.00
21522;DHT22;10922;45.572;10.002;2023-02-28T06:01:39;5.20;1.00
21522;DHT22;10922;45.572;10.002;2023-02-28T06:04:08;5.10;1.00
21522;DHT22;10922;45.572;10.002;2023-02-28T06:06:33;5.10;1.00
21522;DHT22;10922;45.572;10.002;2023-02-28T06:09:00;5.10;1.00
21522;DHT22;10922;45.572;10.002;2023-02-28T06:11:26;5.10;1.00
21522;DHT22;10922;45.572;10.002;2023-02-28T06:13:59;5.20;1.00
21522;DHT22;10922;45.572;10.002;2023-02-28T06:16:26;5.20;1.00
21522;DHT22;10922;45.572;10.002;2023-02-28T06:18:52;5.00;1.00
21522;DHT22;10922;45.572;10.002;2023-02-28T06:21:21;4.80;1.00
21522;DHT22;10922;45.572;10.002;2023-02-28T06:23:47;4.90;1.00
21522;DHT22;10922;45.572;10.002;2023-02-28T06:26:13;4.90;1.00
21522;DHT22;10922;45.572;10.002;2023-02-28T06:28:39;5.20;1.00
21522;DHT22;10922;45.572;10.002;2023-02-28T06:31:14;5.20;1.00
21522;DHT22;10922;45.572;10.002;2023-02-28T06:33:41;5.30;1.00
21522;DHT22;10922;45.572;10.002;2023-02-28T06:36:08;5.30;1.00
21522;DHT22;10922;45.572;10.002;2023-02-28T06:38:35;5.20;1.00
21522;DHT22;10922;45.572;10.002;2023-02-28T06:41:01;5.40;1.00
21522;DHT22;10922;45.572;10.002;2023-02-28T06:43:30;5.40;1.00
21522;DHT22;10922;45.572;10.002;2023-02-28T06:45:58;5.30;1.00
21522;DHT22;10922;45.572;10.002;2023-02-28T06:48:25;5.30;1.00
21522;DHT22;10922;45.572;10.002;2023-02-28T06:50:51;5.40;1.00
21522;DHT22;10922;45.572;10.002;2023-02-28T06:53:16;5.50;1.00
21522;DHT22;10922;45.572;10.002;2023-02-28T06:55:42;5.30;1.00
21522;DHT22;10922;45.572;10.002;2023-02-28T06:58:08;5.40;1.00
21522;DHT22;10922;45.572;10.002;2023-02-28T07:00:41;5.20;1.00
21522;DHT22;10922;45.572;10.002;2023-02-28T07:03:07;5.50;1.00
21522;DHT22;10922;45.572;10.002;2023-02-28T07:05:35;5.30;1.00
21522;DHT22;10922;45.572;10.002;2023-02-28T07:08:02;5.50;1.00
21522;DHT22;10922;45.572;10.002;2023-02-28T07:10:29;5.60;1.00
21522;DHT22;10922;45.572;10.002;2023-02-28T07:12:54;5.50;1.00
21522;DHT22;10922;45.572;10.002;2023-02-28T07:15:20;5.50;1.00
21522;DHT22;10922;45.572;10.002;2023-02-28T07:17:46;5.40;1.00
21522;DHT22;10922;45.572;10.002;2023-02-28T07:20:11;5.30;1.00
21522;DHT22;10922;45.572;10.002;2023-02-28T07:22:37;5.20;1.00
21522;DHT22;10922;45.572;10.002;2023-02-28T07:25:05;5.40;1.00
21522;DHT22;10922;45.572;10.002;2023-02-28T07:27:31;5.20;1.00
21522;DHT22;10922;45.572;10.002;2023-02-28T07:29:57;5.30;1.00
21522;DHT22;10922;45.572;10.002;2023-02-28T07:32:22;5.20;1.00
21522;DHT22;10922;45.572;10.002;2023-02-28T07:34:48;5.30;1.00
21522;DHT22;10922;45.572;10.002;2023-02-28T07:37:14;5.40;1.00
21522;DHT22;10922;45.572;10.002;2023-02-28T07:39:40;5.70;1.00
21522;DHT22;10922;45.572;10.002;2023-02-28T07:42:09;5.60;1.00
21522;DHT22;10922;45.572;10.002;2023-02-28T07:44:37;5.50;1.00
21522;DHT22;10922;45.572;10.002;2023-02-28T07:47:09;5.60;1.00
21522;DHT22;10922;45.572;10.002;2023-02-28T07:49:38;5.60;1.00
21522;DHT22;10922;45.572;10.002;2023-02-28T07:52:04;5.40;1.00
21522;DHT22;10922;45.572;10.002;2023-02-28T07:54:30;5.70;1.00
21522;DHT22;10922;45.572;10.002;2023-02-28T07:56:56;5.80;1.00
21522;DHT22;10922;45.572;10.002;2023-02-28T07:59:22;5.60;1.00
21522;DHT22;10922;45.572;10.002;2023-02-28T08:01:48;5.80;1.00
21522;DHT22;10922;45.572;10.002;2023-02-28T08:04:16;6.00;1.00
21522;DHT22;10922;45.572;10.002;2023-02-28T08:06:42;5.80;1.00
21522;DHT22;10922;45.572;10.002;2023-02-28T08:09:08;6.10;1.00
21522;DHT22;10922;45.572;10.002;2023-02-28T08:11:33;6.30;1.00
21522;DHT22;10922;45.572;10.002;2023-02-28T08:13:59;6.40;1.00
21522;DHT22;10922;45.572;10.002;2023-02-28T08:16:25;6.40;1.00
21522;DHT22;10922;45.572;10.002;2023-02-28T08:18:51;6.40;1.00
21522;DHT22;10922;45.572;10.002;2023-02-28T08:21:18;6.00;1.00
21522;DHT22;10922;45.572;10.002;2023-02-28T08:23:47;5.90;1.00
21522;DHT22;10922;45.572;10.002;2023-02-28T08:26:13;6.10;1.00
21522;DHT22;10922;45.572;10.002;2023-02-28T08:28:38;6.20;1.00
21522;DHT22;10922;45.572;10.002;2023-02-28T08:31:09;6.30;1.00
21522;DHT22;10922;45.572;10.002;2023-02-28T08:33:36;6.20;1.00
21522;DHT22;10922;45.572;10.002;2023-02-28T08:36:01;6.70;1.00
21522;DHT22;10922;45.572;10.002;2023-02-28T08:38:27;6.40;1.00
21522;DHT22;10922;45.572;10.002;2023-02-28T08:41:00;6.80;1.00
21522;DHT22;10922;45.572;10.002;2023-02-28T08:43:27;6.50;1.00
21522;DHT22;10922;45.572;10.002;2023-02-28T08:45:55;6.70;1.00
21522;DHT22;10922;45.572;10.002;2023-02-28T08:48:25;6.90;1.00
21522;DHT22;10922;45.572;10.002;2023-02-28T08:51:03;6.60;1.00
21522;DHT22;10922;45.572;10.002;2023-02-28T08:53:29;6.50;1.00
21522;DHT22;10922;45.572;10.002;2023-02-28T08:56:00;6.60;1.00
21522;DHT22;10922;45.572;10.002;2023-02-28T08:58:26;6.90;1.00
21522;DHT22;10922;45.572;10.002;2023-02-28T09:00:53;6.70;1.00
21522;DHT22;10922;45.572;10.002;2023-02-28T09:03:18;6.80;1.00
21522;DHT22;10922;45.572;10.002;2023-02-28T09:06:02;6.70;1.00
21522;DHT22;10922;45.572;10.002;2023-02-28T09:08:29;7.00;1.00
21522;DHT22;10922;45.572;10.002;2023-02-28T09:10:56;7.10;1.00
21522;DHT22;10922;45.572;10.002;2023-02-28T09:13:24;7.00;1.00
21522;DHT22;10922;45.572;10.002;2023-02-28T09:15:50;7.10;1.00
21522;DHT22;10922;45.572;10.002;2023-02-28T09:18:16;7.10;1.00
21522;DHT22;10922;45.572;10.002;2023-02-28T09:20:42;7.10;99.90
21522;DHT22;10922;45.572;10.002;2023-02-28T09:23:09;7.30;99.90
21522;DHT22;10922;45.572;10.002;2023-02-28T09:25:36;7.40;99.90
21522;DHT22;10922;45.572;10.002;2023-02-28T09:28:02;7.30;99.90
21522;DHT22;10922;45.572;10.002;2023-02-28T09:30:28;7.30;99.90
21522;DHT22;10922;45.572;10.002;2023-02-28T09:32:54;7.60;99.90
21522;DHT22;10922;45.572;10.002;2023-02-28T09:35:22;7.10;99.90
21522;DHT22;10922;45.572;10.002;2023-02-28T09:37:49;7.60;1.00
21522;DHT22;10922;45.572;10.002;2023-02-28T09:40:15;7.50;99.90
21522;DHT22;10922;45.572;10.002;2023-02-28T09:42:46;7.50;99.90
21522;DHT22;10922;45.572;10.002;2023-02-28T09:45:36;7.40;99.90
21522;DHT22;10922;45.572;10.002;2023-02-28T09:48:09;7.50;99.90
21522;DHT22;10922;45.572;10.002;2023-02-28T09:50:41;7.50;99.90
21522;DHT22;10922;45.572;10.002;2023-02-28T09:53:21;7.40;99.90
21522;DHT22;10922;45.572;10.002;2023-02-28T09:55:51;7.70;99.90
21522;DHT22;10922;45.572;10.002;2023-02-28T09:58:45;7.90;99.90
21522;DHT22;10922;45.572;10.002;2023-02-28T10:01:54;8.10;99.90
21522;DHT22;10922;45.572;10.002;2023-02-28T10:06:52;8.10;99.90
21522;DHT22;10922;45.572;10.002;2023-02-28T10:09:26;7.90;99.90
21522;DHT22;10922;45.572;10.002;2023-02-28T10:11:54;7.90;99.90
21522;DHT22;10922;45.572;10.002;2023-02-28T10:14:24;7.70;99.90
21522;DHT22;10922;45.572;10.002;2023-02-28T10:19:42;7.80;99.90
21522;DHT22;10922;45.572;10.002;2023-02-28T10:22:20;7.80;99.90
21522;DHT22;10922;45.572;10.002;2023-02-28T10:24:50;7.90;99.90
21522;DHT22;10922;45.572;10.002;2023-02-28T10:29:47;7.70;99.90
21522;DHT22;10922;45.572;10.002;2023-02-28T10:32:17;7.70;99.90
21522;DHT22;10922;45.572;10.002;2023-02-28T10:34:43;8.30;99.90
21522;DHT22;10922;45.572;10.002;2023-02-28T10:37:10;8.00;99.90
21522;DHT22;10922;45.572;10.002;2023-02-28T10:39:42;7.90;1.00
21522;DHT22;10922;45.572;10.002;2023-02-28T10:47:30;7.60;99.90
21522;DHT22;10922;45.572;10.002;2023-02-28T10:49:56;8.10;99.90
21522;DHT22;10922;45.572;10.002;2023-02-28T10:52:39;7.70;99.90
21522;DHT22;10922;45.572;10.002;2023-02-28T10:55:25;7.50;99.90
21522;DHT22;10922;45.572;10.002;2023-02-28T10:57:51;7.70;99.90
21522;DHT22;10922;45.572;10.002;2023-02-28T11:00:21;8.00;99.90
21522;DHT22;10922;45.572;10.002;2023-02-28T11:02:47;7.90;99.90
21522;DHT22;10922;45.572;10.002;2023-02-28T11:07:54;8.10;99.90
21522;DHT22;10922;45.572;10.002;2023-02-28T11:10:24;8.30;99.90
21522;DHT22;10922;45.572;10.002;2023-02-28T11:12:55;7.70;99.90
21522;DHT22;10922;45.572;10.002;2023-02-28T11:15:24;8.10;99.90
21522;DHT22;10922;45.572;10.002;2023-02-28T11:20:38;8.00;99.90
21522;DHT22;10922;45.572;10.002;2023-02-28T11:23:05;8.10;99.90
21522;DHT22;10922;45.572;10.002;2023-02-28T11:25:37;8.50;99.90
21522;DHT22;10922;45.572;10.002;2023-02-28T11:28:09;8.50;99.90
21522;DHT22;10922;45.572;10.002;2023-02-28T11:36:16;8.70;99.90
21522;DHT22;10922;45.572;10.002;2023-02-28T11:38:43;8.50;99.90
21522;DHT22;10922;45.572;10.002;2023-02-28T11:41:18;8.40;99.90
21522;DHT22;10922;45.572;10.002;2023-02-28T11:44:09;8.50;99.90
21522;DHT22;10922;45.572;10.002;2023-02-28T11:46:59;8.50;99.90
21522;DHT22;10922;45.572;10.002;2023-02-28T11:49:32;8.70;99.90
21522;DHT22;10922;45.572;10.002;2023-02-28T11:52:06;9.00;99.90
21522;DHT22;10922;45.572;10.002;2023-02-28T11:54:40;9.10;99.90
21522;DHT22;10922;45.572;10.002;2023-02-28T12:07:53;9.50;99.90
21522;DHT22;10922;45.572;10.002;2023-02-28T12:10:25;9.50;99.90
21522;DHT22;10922;45.572;10.002;2023-02-28T12:15:56;9.80;99.90
21522;DHT22;10922;45.572;10.002;2023-02-28T12:21:18;9.40;99.90
21522;DHT22;10922;45.572;10.002;2023-02-28T12:26:47;10.70;99.90
21522;DHT22;10922;45.572;10.002;2023-02-28T12:31:49;13.80;99.90
21522;DHT22;10922;45.572;10.002;2023-02-28T12:34:20;13.90;99.90
21522;DHT22;10922;45.572;10.002;2023-02-28T12:36:48;14.10;99.90
21522;DHT22;10922;45.572;10.002;2023-02-28T12:39:36;13.90;99.90
21522;DHT22;10922;45.572;10.002;2023-02-28T12:42:07;14.80;99.90
21522;DHT22;10922;45.572;10.002;2023-02-28T12:44:44;12.40;99.90
21522;DHT22;10922;45.572;10.002;2023-02-28T12:47:15;11.00;99.90
21522;DHT22;10922;45.572;10.002;2023-02-28T12:49:57;11.00;99.90
21522;DHT22;10922;45.572;10.002;2023-02-28T12:52:39;10.60;99.90
21522;DHT22;10922;45.572;10.002;2023-02-28T13:06:57;12.90;99.90
21522;DHT22;10922;45.572;10.002;2023-02-28T13:09:25;12.70;99.90
21522;DHT22;10922;45.572;10.002;2023-02-28T13:11:52;11.60;99.90
21522;DHT22;10922;45.572;10.002;2023-02-28T13:17:10;11.30;99.90
21522;DHT22;10922;45.572;10.002;2023-02-28T13:19:43;10.60;99.90
21522;DHT22;10922;45.572;10.002;2023-02-28T13:25:00;10.80;99.90
21522;DHT22;10922;45.572;10.002;2023-02-28T13:27:37;10.40;99.90
21522;DHT22;10922;45.572;10.002;2023-02-28T13:33:34;10.50;99.90
21522;DHT22;10922;45.572;10.002;2023-02-28T13:38:48;10.10;99.90
21522;DHT22;10922;45.572;10.002;2023-02-28T13:44:19;10.20;99.90
21522;DHT22;10922;45.572;10.002;2023-02-28T13:52:10;10.00;99.90
21522;DHT22;10922;45.572;10.002;2023-02-28T13:57:37;9.60;99.90
21522;DHT22;10922;45.572;10.002;2023-02-28T14:05:43;9.90;99.90
21522;DHT22;10922;45.572;10.002;2023-02-28T14:08:19;10.00;99.90
21522;DHT22;10922;45.572;10.002;2023-02-28T14:10:52;9.90;99.90
21522;DHT22;10922;45.572;10.002;2023-02-28T14:13:44;9.80;99.90
21522;DHT22;10922;45.572;10.002;2023-02-28T14:16:14;9.90;99.90
21522;DHT22;10922;45.572;10.002;2023-02-28T14:18:47;10.00;99.90
21522;DHT22;10922;45.572;10.002;2023-02-28T14:34:25;9.80;99.90
21522;DHT22;10922;45.572;10.002;2023-02-28T14:36:53;10.00;99.90
21522;DHT22;10922;45.572;10.002;2023-02-28T14:39:25;10.10;99.90
21522;DHT22;10922;45.572;10.002;2023-02-28T14:41:51;10.20;99.90
21522;DHT22;10922;45.572;10.002;2023-02-28T14:44:20;9.90;99.90
21522;DHT22;10922;45.572;10.002;2023-02-28T14:46:49;10.10;99.90
21522;DHT22;10922;45.572;10.002;2023-02-28T14:49:28;10.30;99.90
21522;DHT22;10922;45.572;10.002;2023-02-28T14:54:35;10.30;99.90
21522;DHT22;10922;45.572;10.002;2023-02-28T14:57:02;10.10;99.90
21522;DHT22;10922;45.572;10.002;2023-02-28T14:59:36;10.10;99.90
21522;DHT22;10922;45.572;10.002;2023-02-28T15:02:20;10.10;99.90
21522;DHT22;10922;45.572;10.002;2023-02-28T15:04:56;10.00;99.90
21522;DHT22;10922;45.572;10.002;2023-02-28T15:07:23;10.70;99.90
21522;DHT22;10922;45.572;10.002;2023-02-28T15:10:25;10.70;99.90
21522;DHT22;10922;45.572;10.002;2023-02-28T15:12:57;10.50;99.90
21522;DHT22;10922;45.572;10.002;2023-02-28T15:18:24;10.70;99.90
21522;DHT22;10922;45.572;10.002;2023-02-28T15:20:51;11.10;99.90
21522;DHT22;10922;45.572;10.002;2023-02-28T15:23:19;10.90;99.90
21522;DHT22;10922;45.572;10.002;2023-02-28T15:25:46;11.30;99.90
21522;DHT22;10922;45.572;10.002;2023-02-28T15:28:16;10.70;99.90
21522;DHT22;10922;45.572;10.002;2023-02-28T15:30:54;10.70;99.90
21522;DHT22;10922;45.572;10.002;2023-02-28T15:33:24;10.40;99.90
21522;DHT22;10922;45.572;10.002;2023-02-28T15:35:51;10.50;99.90
21522;DHT22;10922;45.572;10.002;2023-02-28T15:38:25;10.70;99.90
21522;DHT22;10922;45.572;10.002;2023-02-28T15:40:53;11.00;99.90
21522;DHT22;10922;45.572;10.002;2023-02-28T15:43:33;10.40;99.90
21522;DHT22;10922;45.572;10.002;2023-02-28T15:46:11;10.60;99.90
21522;DHT22;10922;45.572;10.002;2023-02-28T15:48:54;10.90;99.90
21522;DHT22;10922;45.572;10.002;2023-02-28T15:51:55;11.30;99.90
21522;DHT22;10922;45.572;10.002;2023-02-28T15:54:22;11.40;99.90
21522;DHT22;10922;45.572;10.002;2023-02-28T15:56:52;11.70;99.90
21522;DHT22;10922;45.572;10.002;2023-02-28T15:59:25;11.70;99.90
21522;DHT22;10922;45.572;10.002;2023-02-28T16:04:36;11.30;99.90
21522;DHT22;10922;45.572;10.002;2023-02-28T16:07:05;11.30;99.90
21522;DHT22;10922;45.572;10.002;2023-02-28T16:09:31;11.30;99.90
21522;DHT22;10922;45.572;10.002;2023-02-28T16:12:02;11.40;99.90
21522;DHT22;10922;45.572;10.002;2023-02-28T16:14:29;11.20;99.90
21522;DHT22;10922;45.572;10.002;2023-02-28T16:17:07;11.30;99.90
21522;DHT22;10922;45.572;10.002;2023-02-28T16:19:35;11.40;99.90
21522;DHT22;10922;45.572;10.002;2023-02-28T16:22:01;11.60;99.90
21522;DHT22;10922;45.572;10.002;2023-02-28T16:24:26;11.50;99.90
21522;DHT22;10922;45.572;10.002;2023-02-28T16:26:53;11.40;99.90
21522;DHT22;10922;45.572;10.002;2023-02-28T16:29:32;11.20;99.90
21522;DHT22;10922;45.572;10.002;2023-02-28T16:32:00;11.70;1.00
21522;DHT22;10922;45.572;10.002;2023-02-28T16:34:26;11.50;99.90
21522;DHT22;10922;45.572;10.002;2023-02-28T16:36:52;11.50;99.90
21522;DHT22;10922;45.572;10.002;2023-02-28T16:39:18;11.30;99.90
21522;DHT22;10922;45.572;10.002;2023-02-28T16:41:47;11.20;99.90
21522;DHT22;10922;45.572;10.002;2023-02-28T16:44:26;11.20;99.90
21522;DHT22;10922;45.572;10.002;2023-02-28T16:46:52;10.70;99.90
21522;DHT22;10922;45.572;10.002;2023-02-28T16:49:18;10.80;99.90
21522;DHT22;10922;45.572;10.002;2023-02-28T16:51:44;10.70;99.90
21522;DHT22;10922;45.572;10.002;2023-02-28T16:54:09;10.80;99.90
21522;DHT22;10922;45.572;10.002;2023-02-28T16:56:35;10.70;99.90
21522;DHT22;10922;45.572;10.002;2023-02-28T16:59:02;10.70;99.90
21522;DHT22;10922;45.572;10.002;2023-02-28T17:01:28;10.60;99.90
21522;DHT22;10922;45.572;10.002;2023-02-28T17:03:54;10.50;99.90
21522;DHT22;10922;45.572;10.002;2023-02-28T17:06:25;10.40;99.90
21522;DHT22;10922;45.572;10.002;2023-02-28T17:08:53;10.30;99.90
21522;DHT22;10922;45.572;10.002;2023-02-28T17:11:19;10.30;99.90
21522;DHT22;10922;45.572;10.002;2023-02-28T17:13:45;10.40;99.90
21522;DHT22;10922;45.572;10.002;2023-02-28T17:16:25;10.40;99.90
21522;DHT22;10922;45.572;10.002;2023-02-28T17:18:53;10.50;99.90
21522;DHT22;10922;45.572;10.002;2023-02-28T17:21:19;10.40;99.90
21522;DHT22;10922;45.572;10.002;2023-02-28T17:23:45;10.40;99.90
21522;DHT22;10922;45.572;10.002;2023-02-28T17:26:15;10.40;99.90
21522;DHT22;10922;45.572;10.002;2023-02-28T17:28:42;10.60;99.90
21522;DHT22;10922;45.572;10.002;2023-02-28T17:31:09;10.60;99.90
21522;DHT22;10922;45.572;10.002;2023-02-28T17:33:35;10.70;99.90
21522;DHT22;10922;45.572;10.002;2023-02-28T17:36:01;10.40;99.90
21522;DHT22;10922;45.572;10.002;2023-02-28T17:38:27;9.90;99.90
21522;DHT22;10922;45.572;10.002;2023-02-28T17:40:55;9.80;99.90
21522;DHT22;10922;45.572;10.002;2023-02-28T17:43:27;9.80;99.90
21522;DHT22;10922;45.572;10.002;2023-02-28T17:45:54;9.60;99.90
21522;DHT22;10922;45.572;10.002;2023-02-28T17:48:20;9.40;99.90
21522;DHT22;10922;45.572;10.002;2023-02-28T17:50:46;9.30;99.90
21522;DHT22;10922;45.572;10.002;2023-02-28T17:53:11;9.20;99.90
21522;DHT22;10922;45.572;10.002;2023-02-28T17:55:37;9.20;99.90
21522;DHT22;10922;45.572;10.002;2023-02-28T17:58:03;9.20;99.90
21522;DHT22;10922;45.572;10.002;2023-02-28T18:00:29;9.20;99.90
21522;DHT22;10922;45.572;10.002;2023-02-28T18:02:55;9.30;99.90
21522;DHT22;10922;45.572;10.002;2023-02-28T18:05:21;9.20;99.90
21522;DHT22;10922;45.572;10.002;2023-02-28T18:07:46;9.10;99.90
21522;DHT22;10922;45.572;10.002;2023-02-28T18:10:18;9.40;99.90